Time;durP1;ratioP1;P1;durP2;ratioP2;P2;SDS_P1;SDS_P2;PMS_P1;PMS_P2;Temp;Humidity;BMP_temperature;BMP_pressure;BME280_temperature;BME280_humidity;BME280_pressure;Samples;Min_cycle;Max_cycle;Signal;HPM_P1;HPM_P2
2022/08/21 00:01:16;;;;;;;55.97;22.23;;;;;;;14.66;100.00;101372.91;5057297;28;20051;-79
2022/08/21 00:03:44;;;;;;;51.83;22.95;;;;;;;14.68;100.00;101375.53;5057554;28;20036;-79
2022/08/21 00:06:10;;;;;;;55.15;23.42;;;;;;;14.64;100.00;101374.03;5046764;28;20029;-80
2022/08/21 00:08:36;;;;;;;61.92;26.20;;;;;;;14.64;100.00;101360.25;5056976;28;20032;-80
2022/08/21 00:11:03;;;;;;;61.53;25.50;;;;;;;14.68;100.00;101367.25;5043925;28;20163;-81
2022/08/21 00:13:33;;;;;;;61.75;29.88;;;;;;;14.69;100.00;101375.41;5055492;28;20044;-79
2022/08/21 00:16:00;;;;;;;62.22;27.35;;;;;;;14.68;100.00;101379.16;5064376;28;20033;-80
2022/08/21 00:18:26;;;;;;;73.18;28.05;;;;;;;14.62;100.00;101371.41;5061969;28;20112;-80
2022/08/21 00:20:52;;;;;;;70.13;31.02;;;;;;;14.50;100.00;101373.34;5042168;28;20108;-79
2022/08/21 00:23:19;;;;;;;82.88;31.65;;;;;;;14.59;100.00;101374.44;5056816;28;20488;-79
2022/08/21 00:25:45;;;;;;;76.30;31.02;;;;;;;14.55;100.00;101361.06;5057006;28;20104;-80
2022/08/21 00:28:12;;;;;;;72.15;29.13;;;;;;;14.52;100.00;101356.69;5068994;28;20032;-79
2022/08/21 00:30:39;;;;;;;70.13;28.80;;;;;;;14.48;100.00;101355.22;5071986;28;20052;-80
2022/08/21 00:33:06;;;;;;;67.30;28.38;;;;;;;14.46;100.00;101357.22;5058989;28;20048;-79
2022/08/21 00:35:35;;;;;;;75.55;32.53;;;;;;;14.42;100.00;101355.75;5060757;28;20100;-78
2022/08/21 00:38:01;;;;;;;69.28;32.25;;;;;;;14.44;100.00;101351.81;5060046;28;20373;-79
2022/08/21 00:40:42;;;;;;;73.32;28.02;;;;;;;14.44;100.00;101350.97;5041758;28;20029;-80
2022/08/21 00:43:15;;;;;;;61.15;25.23;;;;;;;14.45;100.00;101349.97;5062129;28;20055;-79
2022/08/21 00:45:42;;;;;;;55.47;23.83;;;;;;;14.30;100.00;101353.06;5051344;28;20412;-78
2022/08/21 00:48:08;;;;;;;65.45;26.38;;;;;;;14.36;100.00;101348.00;5071463;28;20033;-79
2022/08/21 00:50:39;;;;;;;64.32;27.77;;;;;;;14.25;100.00;101351.69;5058479;28;20032;-80
2022/08/21 00:53:07;;;;;;;70.75;27.40;;;;;;;14.19;100.00;101355.00;5071215;28;20082;-81
2022/08/21 00:55:36;;;;;;;79.53;27.98;;;;;;;14.32;100.00;101350.16;5063778;28;20108;-79
2022/08/21 00:58:08;;;;;;;59.63;26.05;;;;;;;14.27;100.00;101344.19;5076926;28;20421;-81
2022/08/21 01:00:38;;;;;;;69.72;27.35;;;;;;;14.34;100.00;101343.50;5060348;28;20396;-79
2022/08/21 01:03:09;;;;;;;59.83;25.67;;;;;;;14.40;100.00;101346.75;5063408;28;20044;-78
2022/08/21 01:05:35;;;;;;;61.20;25.73;;;;;;;14.40;100.00;101346.75;5060389;28;20036;-79
2022/08/21 01:08:01;;;;;;;59.28;25.33;;;;;;;14.45;100.00;101345.31;5073584;28;20036;-79
2022/08/21 01:10:31;;;;;;;58.17;24.83;;;;;;;14.56;100.00;101336.13;5060444;28;20032;-78
2022/08/21 01:13:00;;;;;;;55.58;24.38;;;;;;;14.52;100.00;101341.00;5078743;28;20054;-80
2022/08/21 01:15:34;;;;;;;57.40;25.05;;;;;;;14.56;100.00;101340.75;5067381;28;20072;-78
2022/08/21 01:18:03;;;;;;;74.88;26.50;;;;;;;14.38;100.00;101345.97;5059848;28;20033;-78
2022/08/21 01:20:29;;;;;;;62.08;28.23;;;;;;;14.20;100.00;101340.19;5042926;28;20120;-79
2022/08/21 01:22:56;;;;;;;66.25;28.33;;;;;;;14.10;100.00;101346.53;5043061;28;20044;-80
2022/08/21 01:25:22;;;;;;;54.33;26.33;;;;;;;14.26;100.00;101350.69;5069365;28;20469;-80
2022/08/21 01:27:48;;;;;;;59.55;25.63;;;;;;;14.09;100.00;101343.91;5077928;28;20039;-79
2022/08/21 01:30:21;;;;;;;64.03;24.08;;;;;;;14.22;100.00;101352.84;5078672;28;20090;-80
2022/08/21 01:32:48;;;;;;;61.78;24.45;;;;;;;14.15;100.00;101346.13;5066227;28;20481;-79
2022/08/21 01:35:18;;;;;;;56.13;24.90;;;;;;;14.11;100.00;101352.91;5052189;28;20097;-80
2022/08/21 01:37:44;;;;;;;50.58;24.10;;;;;;;14.03;100.00;101358.19;5059554;28;20029;-79
2022/08/21 01:40:12;;;;;;;59.10;24.63;;;;;;;13.90;100.00;101355.59;5059479;28;20031;-81
2022/08/21 01:42:38;;;;;;;72.55;26.88;;;;;;;13.72;100.00;101345.16;5059471;28;20151;-78
2022/08/21 01:45:08;;;;;;;81.32;26.70;;;;;;;13.73;100.00;101341.41;5050983;28;20051;-79
2022/08/21 01:47:38;;;;;;;59.90;26.98;;;;;;;13.69;100.00;101339.94;5062619;28;20116;-80
2022/08/21 01:50:07;;;;;;;53.42;24.67;;;;;;;13.61;100.00;101342.47;5060743;28;20028;-79
2022/08/21 01:52:33;;;;;;;63.08;25.70;;;;;;;13.48;100.00;101330.72;5059502;28;20036;-78
2022/08/21 01:55:00;;;;;;;49.75;23.50;;;;;;;13.43;100.00;101322.88;5065164;28;20024;-79
2022/08/21 01:57:26;;;;;;;59.58;24.98;;;;;;;13.50;100.00;101328.72;5079990;28;20071;-79
2022/08/21 01:59:52;;;;;;;73.68;29.17;;;;;;;13.48;100.00;101334.34;5059864;28;20036;-80
2022/08/21 02:02:21;;;;;;;63.40;27.85;;;;;;;13.52;100.00;101340.47;5056658;28;20056;-79
2022/08/21 02:04:48;;;;;;;67.68;27.25;;;;;;;13.71;100.00;101348.91;5053974;28;20036;-79
2022/08/21 02:07:14;;;;;;;81.25;29.23;;;;;;;13.60;100.00;101341.56;5061930;28;20129;-81
2022/08/21 02:09:46;;;;;;;65.03;28.60;;;;;;;13.58;100.00;101328.94;5058699;28;20372;-79
2022/08/21 02:12:15;;;;;;;70.95;27.75;;;;;;;13.70;100.00;101340.78;5065569;28;20033;-80
2022/08/21 02:14:46;;;;;;;66.18;25.83;;;;;;;13.65;100.00;101338.41;5067990;28;20106;-79
2022/08/21 02:17:15;;;;;;;73.10;29.63;;;;;;;13.66;100.00;101331.03;5053519;28;20089;-79
2022/08/21 02:19:41;;;;;;;70.35;27.75;;;;;;;13.71;100.00;101323.28;5069958;28;20540;-79
2022/08/21 02:22:10;;;;;;;69.55;27.17;;;;;;;13.75;100.00;101325.63;5043078;28;20051;-79
2022/08/21 02:24:39;;;;;;;87.80;28.88;;;;;;;13.73;100.00;101319.38;5040610;28;20400;-78
2022/08/21 02:27:04;;;;;;;69.75;28.63;;;;;;;13.78;100.00;101328.13;5076001;28;20032;-79
2022/08/21 02:29:30;;;;;;;64.25;29.60;;;;;;;13.59;100.00;101308.66;5054733;28;20392;-79
2022/08/21 02:31:58;;;;;;;74.47;31.55;;;;;;;13.56;100.00;101320.81;5059416;28;20393;-78
2022/08/21 02:34:25;;;;;;;56.63;25.92;;;;;;;13.24;100.00;101327.09;5068691;28;20094;-78
2022/08/21 02:36:51;;;;;;;52.05;23.77;;;;;;;13.13;100.00;101321.59;5075013;28;20048;-78
2022/08/21 02:39:19;;;;;;;56.65;24.77;;;;;;;13.26;100.00;101317.84;5031262;28;20055;-79
2022/08/21 02:41:45;;;;;;;56.80;26.25;;;;;;;13.19;100.00;101315.59;5058084;28;20094;-80
2022/08/21 02:44:14;;;;;;;49.63;23.73;;;;;;;13.19;100.00;101310.09;5057646;28;20384;-81
2022/08/21 02:46:42;;;;;;;59.53;25.77;;;;;;;13.10;100.00;101313.63;5017810;28;20036;-78
2022/08/21 02:49:08;;;;;;;61.17;27.13;;;;;;;13.22;100.00;101311.75;5070779;28;20416;-81
2022/08/21 02:51:33;;;;;;;56.67;25.95;;;;;;;13.24;100.00;101305.09;5060031;28;20047;-78
2022/08/21 02:53:59;;;;;;;53.53;24.58;;;;;;;13.22;100.00;101307.09;5069547;28;20032;-79
2022/08/21 02:56:26;;;;;;;66.68;27.60;;;;;;;13.18;100.00;101307.47;5070307;28;20032;-79
2022/08/21 02:58:53;;;;;;;60.95;27.52;;;;;;;13.16;100.00;101304.84;5058620;28;20032;-79
2022/08/21 03:01:19;;;;;;;62.63;24.60;;;;;;;13.26;100.00;101310.47;5067442;28;20058;-79
2022/08/21 03:03:49;;;;;;;59.78;26.88;;;;;;;13.24;100.00;101305.09;5071266;28;20025;-79
2022/08/21 03:06:16;;;;;;;54.97;26.35;;;;;;;13.25;100.00;101308.75;5058948;28;20060;-78
2022/08/21 03:08:44;;;;;;;64.25;27.55;;;;;;;13.39;100.00;101302.09;5073942;28;20124;-79
2022/08/21 03:11:14;;;;;;;66.15;28.55;;;;;;;13.39;100.00;101307.59;5064252;28;20028;-79
2022/08/21 03:13:43;;;;;;;60.88;30.00;;;;;;;13.50;100.00;101306.72;5074348;28;20054;-79
2022/08/21 03:16:09;;;;;;;51.67;25.52;;;;;;;13.39;100.00;101304.84;5066500;28;20072;-80
2022/08/21 03:18:35;;;;;;;68.75;29.25;;;;;;;13.41;100.00;101309.25;5059331;28;20037;-79
2022/08/21 03:21:01;;;;;;;59.55;27.55;;;;;;;13.49;100.00;101313.22;5030228;28;20025;-79
2022/08/21 03:23:26;;;;;;;77.28;30.73;;;;;;;13.36;100.00;101305.09;5059032;28;20028;-80
2022/08/21 03:25:54;;;;;;;67.03;31.15;;;;;;;13.32;100.00;101307.25;5056132;28;20024;-80
2022/08/21 03:28:21;;;;;;;78.18;34.72;;;;;;;13.35;100.00;101312.50;5031972;28;20395;-81
2022/08/21 03:30:49;;;;;;;84.30;36.90;;;;;;;13.40;100.00;101315.72;5067022;28;20033;-80
2022/08/21 03:33:16;;;;;;;97.38;40.30;;;;;;;13.56;100.00;101320.81;5069471;28;20071;-79
2022/08/21 03:35:44;;;;;;;89.70;40.25;;;;;;;13.54;100.00;101311.84;5069789;28;20358;-82
2022/08/21 03:38:13;;;;;;;88.82;39.60;;;;;;;13.60;100.00;101313.19;5066310;28;20033;-80
2022/08/21 03:40:42;;;;;;;86.07;38.40;;;;;;;13.52;100.00;101311.06;5056572;28;20033;-80
2022/08/21 03:43:09;;;;;;;79.65;37.53;;;;;;;13.64;100.00;101311.03;5070732;28;20043;-80
2022/08/21 03:45:35;;;;;;;82.15;34.83;;;;;;;13.65;100.00;101302.66;5055372;28;20366;-78
2022/08/21 03:48:03;;;;;;;84.57;35.55;;;;;;;13.68;100.00;101313.41;5038868;28;20110;-79
2022/08/21 03:50:33;;;;;;;75.60;34.85;;;;;;;13.70;100.00;101318.78;5040214;28;20040;-79
2022/08/21 03:53:03;;;;;;;104.00;35.85;;;;;;;13.62;100.00;101313.91;5056212;28;20107;-80
2022/08/21 03:55:29;;;;;;;73.05;31.60;;;;;;;13.63;100.00;101312.94;5066662;28;20078;-78
2022/08/21 03:57:55;;;;;;;65.35;30.77;;;;;;;13.63;100.00;101315.69;5039281;28;20044;-79
2022/08/21 04:00:21;;;;;;;64.53;30.23;;;;;;;13.57;100.00;101314.31;5027260;28;20035;-80
2022/08/21 04:02:47;;;;;;;75.75;29.17;;;;;;;13.60;100.00;101311.28;5055783;28;20025;-79
2022/08/21 04:05:26;;;;;;;61.28;27.83;;;;;;;13.59;100.00;101314.16;5068017;28;20078;-79
2022/08/21 04:08:00;;;;;;;55.53;26.17;;;;;;;13.64;100.00;101309.16;5057313;28;20027;-80
2022/08/21 04:10:32;;;;;;;65.20;25.58;;;;;;;13.59;100.00;101315.06;5068679;28;20374;-80
2022/08/21 04:13:04;;;;;;;47.20;24.27;;;;;;;13.54;100.00;101316.44;5058014;28;20032;-79
2022/08/21 04:15:30;;;;;;;54.28;24.83;;;;;;;13.55;100.00;101308.06;5031036;28;20060;-80
2022/08/21 04:17:56;;;;;;;52.53;24.65;;;;;;;13.55;100.00;101315.44;5054666;28;20037;-80
2022/08/21 04:20:24;;;;;;;49.97;23.23;;;;;;;13.57;100.00;101307.94;5057778;28;20515;-80
2022/08/21 04:22:51;;;;;;;55.50;23.50;;;;;;;13.59;100.00;101315.06;5058242;28;20432;-79
2022/08/21 04:25:18;;;;;;;58.65;22.58;;;;;;;13.54;100.00;101310.94;5064510;28;20114;-79
2022/08/21 04:27:49;;;;;;;51.55;21.52;;;;;;;13.52;100.00;101311.06;5059801;28;20036;-80
2022/08/21 04:30:15;;;;;;;38.92;20.83;;;;;;;13.53;100.00;101317.47;5060626;28;20954;-79
2022/08/21 04:32:45;;;;;;;49.78;22.17;;;;;;;13.49;100.00;101308.56;5060919;28;20064;-80
2022/08/21 04:35:15;;;;;;;41.67;21.15;;;;;;;13.48;100.00;101308.69;5072370;28;20029;-81
2022/08/21 04:37:41;;;;;;;39.45;18.73;;;;;;;13.51;100.00;101313.94;5077447;28;20864;-78
2022/08/21 04:40:09;;;;;;;41.55;19.15;;;;;;;13.56;100.00;101309.81;5072887;28;20032;-78
2022/08/21 04:42:45;;;;;;;44.15;18.77;;;;;;;13.60;100.00;101308.53;5059619;28;20108;-79
2022/08/21 04:45:21;;;;;;;46.33;18.17;;;;;;;13.60;100.00;101311.28;5055532;28;20464;-79
2022/08/21 04:47:52;;;;;;;40.00;17.15;;;;;;;13.57;100.00;101308.78;5061179;28;20063;-79
2022/08/21 04:50:18;;;;;;;44.13;17.30;;;;;;;13.59;100.00;101314.16;5052775;28;20031;-78
2022/08/21 04:52:45;;;;;;;40.60;17.60;;;;;;;13.60;100.00;101315.94;5057877;28;20106;-77
2022/08/21 04:55:12;;;;;;;39.25;15.73;;;;;;;13.69;100.00;101315.16;5046561;28;20028;-77
2022/08/21 04:57:40;;;;;;;38.55;17.50;;;;;;;13.67;100.00;101319.91;5058129;28;20434;-76
2022/08/21 05:00:07;;;;;;;34.25;17.95;;;;;;;13.65;100.00;101323.81;5059832;28;20033;-76
2022/08/21 05:02:35;;;;;;;40.92;18.00;;;;;;;13.57;100.00;101332.69;5057596;28;20021;-78
2022/08/21 05:05:05;;;;;;;36.63;18.38;;;;;;;13.51;100.00;101333.19;5045277;28;20040;-78
2022/08/21 05:07:34;;;;;;;45.13;17.90;;;;;;;13.62;100.00;101346.94;5064282;28;20044;-77
2022/08/21 05:10:00;;;;;;;37.75;17.40;;;;;;;13.57;100.00;101338.19;5058797;28;20045;-77
2022/08/21 05:12:27;;;;;;;49.67;18.35;;;;;;;13.60;100.00;101338.81;5062662;28;20089;-77
2022/08/21 05:14:52;;;;;;;32.90;17.52;;;;;;;13.60;100.00;101333.31;5052589;28;20037;-77
2022/08/21 05:17:18;;;;;;;35.60;17.52;;;;;;;13.64;100.00;101328.41;5038441;28;20111;-77
2022/08/21 05:19:46;;;;;;;40.30;17.52;;;;;;;13.66;100.00;101342.03;5055138;28;20040;-76
2022/08/21 05:22:19;;;;;;;34.05;17.30;;;;;;;13.73;100.00;101341.41;5059296;28;20392;-77
2022/08/21 05:24:49;;;;;;;36.03;16.25;;;;;;;13.77;100.00;101337.41;5056624;28;20396;-77
2022/08/21 05:27:14;;;;;;;31.48;16.85;;;;;;;13.76;100.00;101338.38;5069972;28;20041;-77
2022/08/21 05:29:40;;;;;;;30.30;15.57;;;;;;;13.81;100.00;101340.75;5056458;28;20032;-77
2022/08/21 05:32:14;;;;;;;40.05;16.42;;;;;;;13.92;100.00;101339.81;5054477;28;20083;-77
2022/08/21 05:34:39;;;;;;;30.85;15.60;;;;;;;14.01;100.00;101350.06;5067393;28;20139;-77
2022/08/21 05:37:11;;;;;;;34.33;14.75;;;;;;;14.10;100.00;101341.00;5072621;28;20033;-77
2022/08/21 05:39:41;;;;;;;34.92;14.45;;;;;;;14.15;100.00;101348.88;5065427;28;20056;-78
2022/08/21 05:42:07;;;;;;;31.00;13.68;;;;;;;14.29;100.00;101355.94;5060471;28;20035;-78
2022/08/21 05:44:32;;;;;;;38.13;13.93;;;;;;;14.47;100.00;101358.97;5071115;28;20041;-77
2022/08/21 05:47:08;;;;;;;35.75;12.82;;;;;;;14.59;100.00;101354.25;5051044;28;20040;-76
2022/08/21 05:49:34;;;;;;;29.03;11.37;;;;;;;14.96;100.00;101362.91;5068498;28;20068;-77
2022/08/21 05:52:00;;;;;;;19.25;10.13;;;;;;;15.07;100.00;101365.56;5071705;28;20063;-77
2022/08/21 05:54:27;;;;;;;34.40;11.23;;;;;;;15.01;100.00;101352.34;5075707;28;20024;-76
2022/08/21 05:56:52;;;;;;;21.92;10.55;;;;;;;15.34;100.00;101363.22;5073043;28;20036;-78
2022/08/21 05:59:19;;;;;;;23.42;10.05;;;;;;;15.17;100.00;101370.28;5027824;28;20036;-78
2022/08/21 06:01:45;;;;;;;28.08;9.95;;;;;;;15.61;100.00;101362.56;5055851;28;20047;-77
2022/08/21 06:04:11;;;;;;;20.23;8.88;;;;;;;15.44;100.00;101373.25;5006077;28;20036;-78
2022/08/21 06:06:38;;;;;;;21.35;8.95;;;;;;;15.46;100.00;101363.97;5055612;28;20033;-77
2022/08/21 06:09:04;;;;;;;31.67;8.98;;;;;;;15.71;100.00;101366.22;5020997;28;20037;-77
2022/08/21 06:11:32;;;;;;;28.77;8.07;;;;;;;16.32;100.00;101367.88;5052031;28;20601;-78
2022/08/21 06:13:58;;;;;;;29.42;8.63;;;;;;;16.12;100.00;101367.00;5069899;28;20479;-78
2022/08/21 06:16:25;;;;;;;33.40;9.60;;;;;;;16.42;100.00;101364.25;5069771;28;20043;-78
2022/08/21 06:18:51;;;;;;;22.63;7.97;;;;;;;16.53;100.00;101369.63;5057453;28;20484;-77
2022/08/21 06:21:17;;;;;;;23.05;7.72;;;;;;;16.48;100.00;101356.22;5051839;28;20150;-77
2022/08/21 06:23:45;;;;;;;24.45;8.80;;;;;;;16.62;100.00;101363.16;5039546;28;20028;-77
2022/08/21 06:26:12;;;;;;;34.38;8.90;;;;;;;16.56;100.00;101360.13;5064265;28;20107;-78
2022/08/21 06:28:39;;;;;;;29.65;8.02;;;;;;;16.76;100.00;101369.25;5069887;28;20025;-77
2022/08/21 06:31:17;;;;;;;22.58;8.40;;;;;;;16.81;100.00;101366.94;5069176;28;20060;-78
2022/08/21 06:33:43;;;;;;;23.58;8.88;;;;;;;17.16;100.00;101371.78;5069781;28;20036;-76
2022/08/21 06:36:09;;;;;;;27.88;8.88;;;;;;;16.68;100.00;101362.59;5055634;28;20030;-77
2022/08/21 06:38:36;;;;;;;26.30;8.90;;;;;;;16.90;100.00;101366.03;5039204;28;20035;-78
2022/08/21 06:41:01;;;;;;;21.30;9.80;;;;;;;17.19;100.00;101367.84;5056562;28;20068;-78
2022/08/21 06:43:27;;;;;;;29.52;9.95;;;;;;;17.51;100.00;101374.81;5055075;28;20448;-76
2022/08/21 06:45:53;;;;;;;28.45;8.57;;;;;;;17.59;100.00;101372.16;5067739;28;20044;-79
2022/08/21 06:48:19;;;;;;;31.20;8.10;;;;;;;17.57;100.00;101374.22;5056158;28;20040;-78
2022/08/21 06:50:45;;;;;;;23.27;8.50;;;;;;;17.51;100.00;101374.81;5064827;28;20029;-78
2022/08/21 06:53:13;;;;;;;25.33;8.63;;;;;;;17.60;100.00;101376.66;5051575;28;20397;-78
2022/08/21 06:55:44;;;;;;;34.08;9.80;;;;;;;17.33;100.00;101369.22;5069731;28;20025;-78
2022/08/21 06:58:11;;;;;;;32.25;9.18;;;;;;;17.65;100.00;101382.63;5036194;28;20045;-77
2022/08/21 07:00:46;;;;;;;32.08;8.48;;;;;;;18.27;100.00;101373.59;5056888;28;20025;-77
2022/08/21 07:03:27;;;;;;;21.70;7.38;;;;;;;18.31;100.00;101383.31;5043431;28;20025;-78
2022/08/21 07:05:54;;;;;;;23.33;7.00;;;;;;;18.36;100.00;101381.84;5052557;28;20020;-77
2022/08/21 07:08:29;;;;;;;29.45;7.00;;;;;;;18.48;100.00;101376.00;5069599;28;20029;-78
2022/08/21 07:10:58;;;;;;;33.78;7.68;;;;;;;18.17;100.00;101374.53;5067243;28;20143;-77
2022/08/21 07:13:24;;;;;;;23.88;7.53;;;;;;;18.08;100.00;101369.94;5067414;28;20028;-77
2022/08/21 07:15:52;;;;;;;28.05;8.55;;;;;;;18.08;100.00;101369.06;5054335;28;20401;-77
2022/08/21 07:18:19;;;;;;;30.27;8.60;;;;;;;18.03;100.00;101371.47;5056499;28;20068;-79
2022/08/21 07:20:46;;;;;;;38.25;9.75;;;;;;;18.15;100.00;101364.63;5053921;28;20032;-79
2022/08/21 07:23:23;;;;;;;42.00;8.68;;;;;;;18.46;100.00;101367.88;5051631;28;20025;-77
2022/08/21 07:25:50;;;;;;;32.85;9.05;;;;;;;18.83;100.00;101372.34;5074992;28;20036;-78
2022/08/21 07:28:16;;;;;;;35.92;8.85;;;;;;;19.08;100.00;101365.03;5061035;28;20096;-78
2022/08/21 07:30:42;;;;;;;30.45;8.35;;;;;;;19.19;100.00;101368.56;5036403;28;20064;-78
2022/08/21 07:33:11;;;;;;;44.00;9.07;;;;;;;19.40;100.00;101365.38;5055589;28;20499;-78
2022/08/21 07:35:38;;;;;;;37.47;8.55;;;;;;;19.53;100.00;101365.78;5046458;28;20132;-79
2022/08/21 07:38:07;;;;;;;42.72;10.35;;;;;;;19.74;100.00;101365.31;5061966;28;20029;-78
2022/08/21 07:40:36;;;;;;;43.47;10.18;;;;;;;21.24;100.00;101362.38;5034932;28;20028;-78
2022/08/21 07:43:02;;;;;;;37.13;9.45;;;;;;;20.97;100.00;101361.75;5057952;28;20040;-78
2022/08/21 07:45:29;;;;;;;56.92;10.27;;;;;;;20.83;100.00;101365.28;5067293;28;20032;-79
2022/08/21 07:47:58;;;;;;;35.05;9.38;;;;;;;20.55;100.00;101352.56;5075014;28;20036;-80
2022/08/21 07:50:24;;;;;;;47.33;8.13;;;;;;;21.24;100.00;101359.59;5073847;28;20043;-79
2022/08/21 07:52:50;;;;;;;36.33;9.00;;;;;;;20.45;100.00;101351.88;5087492;28;20036;-79
2022/08/21 07:55:19;;;;;;;41.03;8.98;;;;;;;20.35;100.00;101356.75;5065883;28;20040;-79
2022/08/21 07:57:46;;;;;;;43.08;9.60;;;;;;;20.11;100.00;101352.91;5075187;28;20036;-80
2022/08/21 08:00:16;;;;;;;46.55;9.55;;;;;;;20.32;100.00;101357.97;5075778;28;20033;-79
2022/08/21 08:02:45;;;;;;;37.25;9.65;;;;;;;20.48;100.00;101359.00;5078527;28;20025;-78
2022/08/21 08:05:11;;;;;;;40.40;10.07;;;;;;;20.10;100.00;101364.19;5057858;28;20511;-78
2022/08/21 08:07:38;;;;;;;46.05;8.60;;;;;;;20.64;100.00;101361.78;5067218;28;20032;-77
2022/08/21 08:10:06;;;;;;;37.08;9.00;;;;;;;20.75;100.00;101361.44;5051452;28;20047;-77
2022/08/21 08:12:35;;;;;;;41.10;8.13;;;;;;;22.47;100.00;101367.28;5061973;28;20104;-78
2022/08/21 08:15:06;;;;;;;44.63;8.90;;;;;;;21.72;100.00;101362.38;5041663;28;20060;-78
2022/08/21 08:17:35;;;;;;;45.15;8.45;;;;;;;21.44;100.00;101365.59;5080057;28;20033;-77
2022/08/21 08:20:08;;;;;;;47.55;8.10;;;;;;;22.37;100.00;101361.09;5062443;28;20518;-78
2022/08/21 08:22:37;;;;;;;40.37;8.40;;;;;;;22.47;100.00;101361.69;5063956;28;20025;-78
2022/08/21 08:25:06;;;;;;;56.63;8.23;;;;;;;21.72;100.00;101360.44;5064564;28;20052;-76
2022/08/21 08:27:37;;;;;;;42.28;7.25;;;;;;;21.44;100.00;101349.75;5072657;28;20033;-78
2022/08/21 08:30:05;;;;;;;46.15;7.00;;;;;;;21.84;100.00;101347.84;5068090;28;20048;-78
2022/08/21 08:32:30;;;;;;;52.42;7.72;;;;;;;21.46;100.00;101344.88;5055585;28;20095;-77
2022/08/21 08:34:56;;;;;;;54.15;8.88;;;;;;;21.92;100.00;101346.91;5060006;28;20392;-77
2022/08/21 08:37:22;;;;;;;62.25;7.97;;;;;;;21.69;100.00;101354.38;5057126;28;20096;-77
2022/08/21 08:39:49;;;;;;;41.45;6.68;;;;;;;21.36;100.00;101337.78;5078172;28;20046;-77
2022/08/21 08:42:30;;;;;;;48.53;7.30;;;;;;;21.41;100.00;101355.69;5075333;28;20039;-78
2022/08/21 08:45:11;;;;;;;34.15;7.20;;;;;;;22.01;100.00;101339.38;5059095;28;20029;-78
2022/08/21 08:47:45;;;;;;;36.28;5.88;;;;;;;22.88;100.00;101338.09;5080729;28;20029;-78
2022/08/21 08:50:33;;;;;;;40.28;5.75;;;;;;;22.98;100.00;101349.84;5059656;28;20039;-79
2022/08/21 08:53:06;;;;;;;24.70;4.05;;;;;;;22.57;100.00;101336.31;5079354;28;20507;-77
2022/08/21 08:55:39;;;;;;;25.48;4.00;;;;;;;22.10;100.00;101332.66;5069412;28;20035;-77
2022/08/21 08:58:47;;;;;;;31.98;4.47;;;;;;;21.93;100.00;101322.69;5065869;28;20074;-77
2022/08/21 09:01:19;;;;;;;30.17;4.28;;;;;;;23.74;100.00;101332.00;5073571;28;20020;-78
2022/08/21 09:03:49;;;;;;;39.22;4.72;;;;;;;23.94;100.00;101329.44;5059449;28;20024;-78
2022/08/21 09:06:41;;;;;;;31.77;4.28;;;;;;;24.13;100.00;101316.75;5068645;28;20032;-78
2022/08/21 09:09:20;;;;;;;24.67;3.78;;;;;;;23.24;100.00;101327.06;5068430;28;20136;-78
2022/08/21 09:12:01;;;;;;;15.85;3.10;;;;;;;23.47;100.00;101317.69;5060780;28;20033;-77
2022/08/21 09:14:47;;;;;;;28.38;4.15;;;;;;;23.17;100.00;101319.63;5066758;28;20136;-77
2022/08/21 09:17:34;;;;;;;28.42;3.72;;;;;;;23.44;100.00;101323.66;5042309;28;20067;-79
2022/08/21 09:20:13;;;;;;;26.48;3.42;;;;;;;23.12;100.00;101321.09;5072853;28;20463;-78
2022/08/21 09:22:43;;;;;;;26.48;3.63;;;;;;;23.19;100.00;101318.41;5056735;28;20029;-77
2022/08/21 09:25:20;;;;;;;21.85;3.30;;;;;;;22.93;100.00;101316.91;5066075;28;20044;-78
2022/08/21 09:27:48;;;;;;;29.73;2.85;;;;;;;22.65;100.00;101313.06;5088480;28;20028;-77
2022/08/21 09:30:14;;;;;;;21.40;2.70;;;;;;;22.87;100.00;101319.59;5046171;28;20389;-77
2022/08/21 09:32:42;;;;;;;30.40;3.05;;;;;;;22.90;100.00;101314.50;5056051;28;20072;-77
2022/08/21 09:35:08;;;;;;;18.48;2.30;;;;;;;22.20;100.00;101319.34;5054217;28;20076;-77
2022/08/21 09:37:47;;;;;;;15.48;2.30;;;;;;;22.27;100.00;101310.22;5072071;28;20040;-77
2022/08/21 09:40:33;;;;;;;21.20;2.95;;;;;;;21.98;100.00;101317.44;5075095;28;20546;-78
2022/08/21 09:43:14;;;;;;;28.15;2.97;;;;;;;22.72;100.00;101316.81;5069012;28;20108;-77
2022/08/21 09:45:42;;;;;;;26.50;2.92;;;;;;;23.27;100.00;101321.09;5062945;28;20040;-77
2022/08/21 09:48:09;;;;;;;24.05;2.40;;;;;;;23.70;100.00;101311.94;5055105;28;20144;-76
2022/08/21 09:50:38;;;;;;;26.55;2.60;;;;;;;23.28;100.00;101316.34;5067154;28;20029;-78
2022/08/21 09:53:30;;;;;;;19.48;2.28;;;;;;;23.79;100.00;101312.69;5061331;28;20040;-78
2022/08/21 09:58:50;;;;;;;18.80;2.15;;;;;;;24.39;100.00;101318.94;5073283;28;20068;-78
2022/08/21 10:01:20;;;;;;;29.48;2.88;;;;;;;24.49;100.00;101315.78;5063951;28;20081;-78
2022/08/21 10:03:47;;;;;;;21.30;2.45;;;;;;;24.81;99.43;101305.06;5057947;28;20113;-77
2022/08/21 10:06:28;;;;;;;19.30;2.25;;;;;;;23.84;100.00;101313.88;5029786;28;20037;-78
2022/08/21 10:09:15;;;;;;;20.35;2.40;;;;;;;23.20;100.00;101303.38;5066264;28;20413;-77
2022/08/21 10:11:53;;;;;;;15.05;2.40;;;;;;;23.53;100.00;101308.53;5065583;28;20025;-76
2022/08/21 10:14:57;;;;;;;17.40;2.60;;;;;;;24.02;100.00;101304.13;5054645;28;20025;-78
2022/08/21 10:17:47;;;;;;;24.67;2.88;;;;;;;24.24;97.13;101302.22;5023758;28;20099;-78
2022/08/21 10:20:44;;;;;;;15.65;1.92;;;;;;;24.59;97.96;101305.97;5062016;28;20060;-78
2022/08/21 10:23:43;;;;;;;29.55;2.60;;;;;;;24.39;95.95;101307.72;5055623;28;20044;-78
2022/08/21 10:26:21;;;;;;;16.40;2.15;;;;;;;24.38;96.57;101308.78;5056218;28;20033;-80
2022/08/21 10:29:21;;;;;;;16.93;2.20;;;;;;;24.71;94.68;101299.81;5041408;28;20116;-78
2022/08/21 10:31:49;;;;;;;19.48;2.30;;;;;;;24.57;95.85;101312.88;5071914;28;20059;-78
2022/08/21 10:34:25;;;;;;;11.63;2.28;;;;;;;24.39;94.58;101307.72;5057947;28;20495;-79
2022/08/21 10:37:28;;;;;;;21.63;2.33;;;;;;;24.63;94.84;101303.66;5055281;28;20396;-78
2022/08/21 10:40:21;;;;;;;13.32;2.00;;;;;;;24.63;89.77;101308.38;5040646;28;20031;-78
2022/08/21 10:42:55;;;;;;;16.93;2.00;;;;;;;24.54;88.14;101308.50;5032234;28;20049;-81
2022/08/21 10:45:48;;;;;;;16.75;2.08;;;;;;;24.15;89.05;101297.81;5081425;28;20055;-78
2022/08/21 10:48:30;;;;;;;13.98;2.22;;;;;;;24.01;88.56;101303.28;5068857;28;20043;-80
2022/08/21 10:51:49;;;;;;;16.70;2.22;;;;;;;24.33;89.28;101303.78;5072441;28;20110;-80
2022/08/21 10:54:37;;;;;;;17.92;1.77;;;;;;;25.87;80.89;101299.13;5023325;28;20500;-78
2022/08/21 10:57:30;;;;;;;16.77;2.28;;;;;;;25.62;80.52;101310.91;5070034;28;20032;-80
2022/08/21 11:00:07;;;;;;;22.70;2.35;;;;;;;25.04;84.68;101308.47;5056917;28;20040;-81
2022/08/21 11:02:41;;;;;;;19.77;2.55;;;;;;;24.59;83.95;101302.31;5047946;28;20039;-77
2022/08/21 11:05:38;;;;;;;18.33;2.20;;;;;;;24.90;83.33;101296.28;5052947;28;20028;-77
2022/08/21 11:08:38;;;;;;;11.50;1.85;;;;;;;24.81;81.45;101300.34;5063441;28;20040;-77
2022/08/21 11:11:12;;;;;;;8.02;1.50;;;;;;;24.91;82.29;101297.19;5046416;28;20071;-78
2022/08/21 11:13:53;;;;;;;20.25;2.00;;;;;;;24.97;80.82;101301.94;5089358;28;20029;-78
2022/08/21 11:16:36;;;;;;;19.42;1.92;;;;;;;25.53;77.55;101294.47;5074329;28;20046;-81
2022/08/21 11:19:15;;;;;;;20.88;1.95;;;;;;;25.36;79.15;101294.84;5070992;28;20420;-80
2022/08/21 11:21:56;;;;;;;13.60;1.75;;;;;;;25.39;74.88;101287.97;5050645;28;20077;-80
2022/08/21 11:24:53;;;;;;;12.50;1.83;;;;;;;25.52;78.52;101296.44;5072989;28;20039;-80
2022/08/21 11:27:25;;;;;;;11.90;1.40;;;;;;;25.26;76.24;101295.19;5059778;28;20047;-78